createdAt,value
2019-04-16T00:02:06.476Z,23.27
2019-04-16T00:04:31.511Z,30.55
2019-04-16T00:06:53.740Z,28.65
2019-04-16T00:09:31.753Z,27.65
2019-04-16T00:11:59.762Z,34.33
2019-04-16T00:14:24.941Z,30.77
2019-04-16T00:16:45.730Z,27.17
2019-04-16T00:19:08.980Z,28.92
2019-04-16T00:21:41.146Z,28.27
2019-04-16T00:24:03.626Z,27.93
2019-04-16T00:26:26.943Z,30.05
2019-04-16T00:28:46.256Z,22.52
2019-04-16T00:31:08.504Z,30.72
2019-04-16T00:33:28.994Z,32.20
2019-04-16T00:35:49.553Z,32.65
2019-04-16T00:38:10.128Z,31.05
2019-04-16T00:40:30.603Z,31.68
2019-04-16T00:42:51.133Z,31.42
2019-04-16T00:45:11.868Z,32.23
2019-04-16T00:47:32.351Z,27.30
2019-04-16T00:49:57.704Z,28.40
2019-04-16T00:52:14.564Z,28.60
2019-04-16T00:54:35.194Z,27.07
2019-04-16T00:56:55.946Z,29.48
2019-04-16T00:59:16.579Z,29.67
2019-04-16T01:01:37.163Z,32.60
2019-04-16T01:03:57.748Z,27.65
2019-04-16T01:06:18.269Z,30.70
2019-04-16T01:08:38.843Z,29.37
2019-04-16T01:10:59.319Z,32.48
2019-04-16T01:13:21.725Z,30.80
2019-04-16T01:15:42.137Z,22.25
2019-04-16T01:18:04.799Z,33.55
2019-04-16T01:20:24.486Z,22.33
2019-04-16T01:22:47.764Z,30.97
2019-04-16T01:25:08.557Z,30.80
2019-04-16T01:27:33.425Z,27.98
2019-04-16T01:29:53.966Z,26.45
2019-04-16T01:32:16.064Z,26.55
2019-04-16T01:34:47.106Z,28.93
2019-04-16T01:37:26.539Z,28.60
2019-04-16T01:39:57.722Z,33.45
2019-04-16T01:42:18.263Z,29.02
2019-04-16T01:44:39.923Z,29.00
2019-04-16T01:47:03.346Z,26.65
2019-04-16T01:49:22.084Z,22.07
2019-04-16T01:51:44.681Z,31.60
2019-04-16T01:56:27.813Z,25.30
2019-04-16T01:58:45.868Z,20.57
2019-04-16T02:01:08.161Z,29.95
2019-04-16T02:03:28.350Z,26.48
2019-04-16T02:05:48.876Z,30.88
2019-04-16T02:08:09.501Z,29.65
2019-04-16T02:10:30.058Z,30.40
2019-04-16T02:12:50.680Z,30.05
2019-04-16T02:15:11.547Z,27.95
2019-04-16T02:17:33.643Z,31.75
2019-04-16T02:22:16.350Z,25.45
2019-04-16T02:24:38.464Z,20.97
2019-04-16T02:26:58.351Z,20.07
2019-04-16T02:29:20.716Z,27.15
2019-04-16T02:31:43.075Z,24.87
2019-04-16T02:34:03.433Z,28.25
2019-04-16T02:36:23.926Z,31.60
2019-04-16T02:38:52.349Z,33.23
2019-04-16T02:41:09.886Z,26.00
2019-04-16T02:43:39.404Z,30.55
2019-04-16T02:45:58.334Z,32.53
2019-04-16T02:48:17.748Z,25.20
2019-04-16T02:50:42.849Z,32.63
2019-04-16T02:53:24.265Z,31.60
2019-04-16T02:55:53.938Z,28.05
2019-04-16T02:58:18.987Z,29.95
2019-04-16T03:00:41.213Z,25.97
2019-04-16T03:03:03.529Z,24.92
2019-04-16T03:05:29.132Z,26.25
2019-04-16T03:07:52.736Z,29.57
2019-04-16T03:10:14.354Z,30.02
2019-04-16T03:12:34.971Z,35.90
2019-04-16T03:14:55.558Z,30.20
2019-04-16T03:17:34.460Z,30.17
2019-04-16T03:19:59.646Z,32.63
2019-04-16T03:22:20.219Z,29.10
2019-04-16T03:24:41.032Z,32.73
2019-04-16T03:27:04.435Z,28.17
2019-04-16T03:29:23.338Z,27.13
2019-04-16T03:31:44.035Z,31.00
2019-04-16T03:34:04.825Z,26.97
2019-04-16T03:36:26.476Z,31.90
2019-04-16T03:38:47.315Z,29.60
2019-04-16T03:41:07.877Z,29.32
2019-04-16T03:43:29.473Z,29.15
2019-04-16T03:45:55.450Z,34.40
2019-04-16T03:48:16.144Z,31.07
2019-04-16T03:50:36.719Z,31.97
2019-04-16T03:52:57.365Z,33.95
2019-04-16T03:55:18.033Z,37.63
2019-04-16T03:57:38.699Z,30.45
2019-04-16T04:00:00.915Z,28.05
2019-04-16T04:02:23.113Z,29.42
2019-04-16T04:04:43.817Z,32.13
2019-04-16T04:07:04.510Z,31.75
2019-04-16T04:09:25.031Z,33.20
2019-04-16T04:11:45.688Z,29.37
2019-04-16T04:14:06.482Z,30.77
2019-04-16T04:16:27.391Z,37.85
2019-04-16T04:18:47.948Z,36.17
2019-04-16T04:21:08.434Z,27.48
2019-04-16T04:23:29.411Z,34.25
2019-04-16T04:25:50.179Z,39.50
2019-04-16T04:28:10.715Z,35.60
2019-04-16T04:30:31.240Z,35.58
2019-04-16T04:32:52.061Z,36.77
2019-04-16T04:35:12.779Z,30.68
2019-04-16T04:37:33.321Z,30.95
2019-04-16T04:39:55.449Z,33.40
2019-04-16T04:42:18.897Z,30.92
2019-04-16T04:44:38.203Z,21.85
2019-04-16T04:46:58.728Z,34.85
2019-04-16T04:49:19.740Z,32.58
2019-04-16T04:51:43.403Z,38.55
2019-04-16T04:54:02.328Z,23.18
2019-04-16T04:56:27.757Z,29.27
2019-04-16T04:58:45.068Z,22.77
2019-04-16T05:01:05.870Z,31.70
2019-04-16T05:03:28.337Z,30.35
2019-04-16T05:05:53.381Z,20.35
2019-04-16T05:08:15.360Z,32.35
2019-04-16T05:10:39.825Z,32.85
2019-04-16T05:12:57.990Z,25.88
2019-04-16T05:15:18.798Z,30.77
2019-04-16T05:17:41.036Z,37.65
2019-04-16T05:20:01.551Z,35.35
2019-04-16T05:22:22.372Z,38.50
2019-04-16T05:24:43.045Z,43.52
2019-04-16T05:27:05.525Z,30.82
2019-04-16T05:29:26.828Z,35.40
2019-04-16T05:31:46.939Z,20.20
2019-04-16T05:34:07.582Z,33.88
2019-04-16T05:36:28.193Z,35.03
2019-04-16T05:38:48.888Z,31.87
2019-04-16T05:41:13.435Z,31.68
2019-04-16T05:43:31.676Z,33.20
2019-04-16T05:45:52.133Z,36.17
2019-04-16T05:48:13.235Z,35.40
2019-04-16T05:50:34.010Z,31.60
2019-04-16T05:52:54.764Z,40.08
2019-04-16T05:55:22.776Z,32.15
2019-04-16T05:57:44.978Z,30.95
2019-04-16T06:00:10.761Z,40.85
2019-04-16T06:02:41.723Z,38.75
2019-04-16T06:05:04.293Z,36.28
2019-04-16T06:07:27.000Z,51.25
2019-04-16T06:09:47.714Z,34.20
2019-04-16T06:12:09.529Z,29.75
2019-04-16T06:14:37.642Z,30.08
2019-04-16T06:16:59.892Z,27.45
2019-04-16T06:19:40.590Z,26.23
2019-04-16T06:22:13.290Z,26.68
2019-04-16T06:24:40.096Z,26.65
2019-04-16T06:27:07.823Z,28.55
2019-04-16T06:29:35.780Z,27.35
2019-04-16T06:32:00.922Z,23.45
2019-04-16T06:34:39.628Z,25.15
2019-04-16T06:37:20.717Z,22.13
2019-04-16T06:39:41.396Z,19.20
2019-04-16T06:42:10.034Z,20.17
2019-04-16T06:44:34.773Z,19.45
2019-04-16T06:46:54.993Z,15.13
2019-04-16T06:49:17.816Z,28.35
2019-04-16T06:51:59.570Z,27.32
2019-04-16T06:54:32.179Z,20.12
2019-04-16T06:56:57.912Z,18.90
2019-04-16T06:59:30.417Z,20.45
2019-04-16T07:01:58.237Z,19.50
2019-04-16T07:04:20.162Z,15.83
2019-04-16T07:06:48.753Z,17.57
2019-04-16T07:09:13.599Z,18.47
2019-04-16T07:11:35.102Z,16.53
2019-04-16T07:13:55.525Z,15.40
2019-04-16T07:16:15.876Z,23.00
2019-04-16T07:18:38.497Z,19.87
2019-04-16T07:20:58.310Z,16.00
2019-04-16T07:23:18.597Z,20.13
2019-04-16T07:25:42.236Z,19.53
2019-04-16T07:28:06.660Z,18.90
2019-04-16T07:30:31.366Z,20.17
2019-04-16T07:33:00.593Z,21.37
2019-04-16T07:35:28.162Z,17.57
2019-04-16T07:38:06.921Z,20.17
2019-04-16T07:40:29.154Z,20.83
2019-04-16T07:42:57.980Z,23.90
2019-04-16T07:45:20.321Z,20.20
2019-04-16T07:47:52.502Z,23.77
2019-04-16T07:50:24.094Z,23.10
2019-04-16T07:53:05.445Z,23.57
2019-04-16T07:55:39.438Z,19.97
2019-04-16T07:57:59.650Z,19.53
2019-04-16T08:00:20.608Z,22.90
2019-04-16T08:02:41.045Z,21.53
2019-04-16T08:05:01.450Z,20.97
2019-04-16T08:07:22.940Z,18.87
2019-04-16T08:09:44.169Z,24.67
2019-04-16T08:12:10.745Z,20.63
2019-04-16T08:14:28.977Z,21.80
2019-04-16T08:16:49.392Z,25.10
2019-04-16T08:19:12.163Z,19.70
2019-04-16T08:21:31.681Z,20.30
2019-04-16T08:23:55.752Z,18.97
2019-04-16T08:26:17.385Z,24.27
2019-04-16T08:28:37.746Z,25.23
2019-04-16T08:30:58.265Z,21.00
2019-04-16T08:33:18.580Z,19.23
2019-04-16T08:35:39.093Z,21.60
2019-04-16T08:37:59.498Z,25.90
2019-04-16T08:40:19.851Z,22.00
2019-04-16T08:42:44.741Z,21.70
2019-04-16T08:45:07.216Z,19.43
2019-04-16T08:47:24.166Z,20.13
2019-04-16T08:49:44.653Z,21.53
2019-04-16T08:52:09.971Z,19.13
2019-04-16T08:54:28.738Z,19.87
2019-04-16T08:56:49.884Z,20.43
2019-04-16T08:59:11.292Z,21.47
2019-04-16T09:01:34.098Z,21.57
2019-04-16T09:03:54.336Z,21.75
2019-04-16T09:06:14.508Z,19.82
2019-04-16T09:08:52.837Z,25.32
2019-04-16T09:11:22.651Z,21.95
2019-04-16T09:13:36.784Z,23.77
2019-04-16T09:15:59.004Z,19.83
2019-04-16T09:18:24.175Z,20.50
2019-04-16T09:20:44.993Z,26.40
2019-04-16T09:23:05.257Z,21.87
2019-04-16T09:25:36.195Z,25.20
2019-04-16T09:28:00.791Z,19.80
2019-04-16T09:30:38.323Z,23.73
2019-04-16T09:33:06.111Z,22.53
2019-04-16T09:35:37.580Z,22.00
2019-04-16T09:38:02.438Z,25.60
2019-04-16T09:40:41.138Z,25.20
2019-04-16T09:43:16.681Z,22.97
2019-04-16T09:45:28.192Z,19.23
2019-04-16T09:47:48.684Z,20.33
2019-04-16T09:50:11.184Z,23.40
2019-04-16T09:52:30.978Z,19.10
2019-04-16T09:54:51.560Z,20.30
2019-04-16T09:57:14.515Z,24.10
2019-04-16T09:59:36.948Z,20.25
2019-04-16T10:01:59.024Z,30.57
2019-04-16T10:04:20.106Z,21.80
2019-04-16T10:06:40.228Z,23.83
2019-04-16T10:09:00.431Z,21.00
2019-04-16T10:11:21.237Z,20.07
2019-04-16T10:13:41.539Z,24.67
2019-04-16T10:16:01.924Z,24.17
2019-04-16T10:18:22.331Z,23.47
2019-04-16T10:20:42.899Z,23.00
2019-04-16T10:23:04.966Z,25.90
2019-04-16T10:25:25.433Z,22.90
2019-04-16T10:27:47.501Z,22.20
2019-04-16T10:32:36.647Z,24.67
2019-04-16T10:34:57.080Z,19.23
2019-04-16T10:37:17.647Z,20.13
2019-04-16T10:39:48.218Z,22.53
2019-04-16T10:42:10.360Z,19.20
2019-04-16T10:44:48.542Z,20.48
2019-04-16T10:47:22.464Z,23.15
2019-04-16T10:49:44.208Z,19.25
2019-04-16T10:52:12.102Z,21.23
2019-04-16T10:54:39.768Z,19.23
2019-04-16T10:57:10.240Z,20.27
2019-04-16T10:59:37.080Z,20.37
2019-04-16T11:02:02.162Z,20.02
2019-04-16T11:04:24.362Z,18.80
2019-04-16T11:06:49.431Z,19.60
2019-04-16T11:09:12.870Z,21.23
2019-04-16T11:11:33.257Z,21.20
2019-04-16T11:13:59.992Z,19.27
2019-04-16T11:16:17.225Z,23.00
2019-04-16T11:18:37.571Z,19.13
2019-04-16T11:20:58.014Z,20.73
2019-04-16T11:23:18.467Z,18.90
2019-04-16T11:25:40.003Z,17.87
2019-04-16T11:28:01.070Z,21.17
2019-04-16T11:30:23.608Z,18.23
2019-04-16T11:32:44.398Z,17.65
2019-04-16T11:35:05.855Z,21.65
2019-04-16T11:37:25.957Z,17.30
2019-04-16T11:39:46.209Z,17.23
2019-04-16T11:42:06.448Z,16.30
2019-04-16T11:44:26.571Z,20.62
2019-04-16T11:46:49.264Z,16.30
2019-04-16T11:49:09.908Z,15.88
2019-04-16T11:51:30.169Z,14.55
2019-04-16T11:53:51.880Z,18.67
2019-04-16T11:56:14.076Z,18.70
2019-04-16T11:58:41.711Z,16.25
2019-04-16T12:01:03.635Z,16.82
2019-04-16T12:03:27.755Z,14.55
2019-04-16T12:06:06.001Z,15.80
2019-04-16T12:08:44.933Z,13.62
2019-04-16T12:11:15.589Z,16.00
2019-04-16T12:13:37.699Z,13.07
2019-04-16T12:16:00.143Z,12.87
2019-04-16T12:18:31.827Z,17.27
2019-04-16T12:20:52.536Z,14.27
2019-04-16T12:23:16.446Z,13.43
2019-04-16T12:25:47.660Z,16.25
2019-04-16T12:28:18.267Z,15.50
2019-04-16T12:30:56.001Z,14.70
2019-04-16T12:33:35.569Z,16.82
2019-04-16T12:36:14.124Z,17.98
2019-04-16T12:38:38.979Z,16.43
2019-04-16T12:41:01.302Z,15.40
2019-04-16T12:43:31.797Z,17.33
2019-04-16T12:45:54.130Z,16.27
2019-04-16T12:48:18.584Z,14.03
2019-04-16T12:50:52.358Z,12.93
2019-04-16T12:53:29.292Z,17.97
2019-04-16T12:56:08.434Z,13.80
2019-04-16T12:58:50.413Z,14.47
2019-04-16T13:01:19.866Z,16.37
2019-04-16T13:03:52.765Z,16.57
2019-04-16T13:06:30.173Z,17.70
2019-04-16T13:09:08.569Z,15.88
2019-04-16T13:11:36.295Z,15.28
2019-04-16T13:14:12.765Z,17.25
2019-04-16T13:16:43.632Z,15.85
2019-04-16T13:19:08.159Z,17.27
2019-04-16T13:21:29.760Z,15.68
2019-04-16T13:23:51.526Z,15.53
2019-04-16T13:26:19.440Z,19.95
2019-04-16T13:28:40.214Z,14.17
2019-04-16T13:31:02.184Z,15.63
2019-04-16T13:33:22.482Z,16.97
2019-04-16T13:35:43.756Z,16.17
2019-04-16T13:38:08.118Z,14.47
2019-04-16T13:40:26.874Z,15.80
2019-04-16T13:42:47.336Z,13.87
2019-04-16T13:45:27.365Z,16.57
2019-04-16T13:47:54.406Z,13.97
2019-04-16T13:50:25.868Z,15.43
2019-04-16T13:52:46.782Z,15.33
2019-04-16T13:55:11.814Z,17.90
2019-04-16T13:57:39.590Z,16.43
2019-04-16T14:00:05.665Z,12.03
2019-04-16T14:02:37.012Z,15.93
2019-04-16T14:05:03.094Z,17.07
2019-04-16T14:07:19.399Z,16.00
2019-04-16T14:09:39.912Z,13.27
2019-04-16T14:12:00.170Z,15.03
2019-04-16T14:14:22.596Z,16.83
2019-04-16T14:16:43.766Z,13.67
2019-04-16T14:19:06.052Z,21.12
2019-04-16T14:21:26.750Z,15.03
2019-04-16T14:23:47.003Z,16.95
2019-04-16T14:26:07.248Z,13.35
2019-04-16T14:28:27.311Z,13.05
2019-04-16T14:30:48.936Z,14.03
2019-04-16T14:33:09.043Z,14.80
2019-04-16T14:35:33.467Z,13.20
2019-04-16T14:37:53.101Z,17.17
2019-04-16T14:40:18.014Z,14.73
2019-04-16T14:42:38.532Z,16.60
2019-04-16T14:45:09.381Z,14.27
2019-04-16T14:47:33.490Z,13.03
2019-04-16T14:49:52.144Z,18.20
2019-04-16T14:52:12.665Z,17.40
2019-04-16T14:54:43.495Z,13.90
2019-04-16T14:57:09.969Z,18.40
2019-04-16T14:59:33.994Z,14.63
2019-04-16T15:01:53.059Z,16.53
2019-04-16T15:04:20.425Z,15.57
2019-04-16T15:06:44.650Z,15.50
2019-04-16T15:09:11.195Z,17.27
2019-04-16T15:11:33.403Z,15.60
2019-04-16T15:13:55.738Z,15.55
2019-04-16T15:16:34.026Z,16.90
2019-04-16T15:19:12.037Z,17.87
2019-04-16T15:21:37.126Z,13.63
2019-04-16T15:24:17.264Z,16.77
2019-04-16T15:26:52.328Z,16.23
2019-04-16T15:29:17.616Z,13.90
2019-04-16T15:31:48.919Z,15.30
2019-04-16T15:34:18.187Z,15.17
2019-04-16T15:36:40.299Z,19.03
2019-04-16T15:39:03.981Z,18.80
2019-04-16T15:41:35.554Z,16.33
2019-04-16T15:44:13.912Z,18.17
2019-04-16T15:46:52.302Z,15.57
2019-04-16T15:49:24.647Z,16.07
2019-04-16T15:52:03.211Z,15.10
2019-04-16T15:54:38.164Z,15.00
2019-04-16T15:57:10.585Z,14.60
2019-04-16T15:59:35.124Z,18.90
2019-04-16T16:02:13.886Z,13.87
2019-04-16T16:04:37.368Z,16.80
2019-04-16T16:06:59.505Z,14.13
2019-04-16T16:09:22.903Z,13.38
2019-04-16T16:14:06.644Z,21.30
2019-04-16T16:16:40.987Z,15.28
2019-04-16T16:18:48.677Z,16.42
2019-04-16T16:21:08.685Z,17.65
2019-04-16T16:23:32.999Z,15.90
2019-04-16T16:25:52.081Z,17.90
2019-04-16T16:28:12.206Z,14.90
2019-04-16T16:30:32.285Z,17.80
2019-04-16T16:32:52.328Z,19.10
2019-04-16T16:35:17.010Z,26.47
2019-04-16T16:37:37.874Z,15.27
2019-04-16T16:39:58.293Z,14.77
2019-04-16T16:42:18.928Z,22.13
2019-04-16T16:44:39.235Z,15.67
2019-04-16T16:47:04.112Z,15.87
2019-04-16T16:49:24.566Z,15.80
2019-04-16T16:51:58.316Z,18.13
2019-04-16T16:54:29.165Z,15.50
2019-04-16T16:57:07.531Z,14.90
2019-04-16T16:59:26.737Z,16.13
2019-04-16T17:01:55.406Z,15.07
2019-04-16T17:04:20.317Z,17.83
2019-04-16T17:06:41.757Z,18.17
2019-04-16T17:09:02.386Z,14.07
2019-04-16T17:11:24.272Z,17.30
2019-04-16T17:13:44.917Z,16.77
2019-04-16T17:16:05.617Z,15.80
2019-04-16T17:18:26.064Z,17.13
2019-04-16T17:20:50.233Z,19.98
2019-04-16T17:23:09.616Z,21.50
2019-04-16T17:25:36.465Z,17.00
2019-04-16T17:27:52.134Z,19.42
2019-04-16T17:30:13.214Z,17.70
2019-04-16T17:32:34.037Z,17.80
2019-04-16T17:34:54.181Z,17.15
2019-04-16T17:37:14.888Z,15.83
2019-04-16T17:39:48.468Z,15.03
2019-04-16T17:42:10.345Z,18.48
2019-04-16T17:44:43.941Z,14.95
2019-04-16T17:47:31.917Z,14.55
2019-04-16T17:49:51.711Z,15.60
2019-04-16T17:52:15.843Z,15.83
2019-04-16T17:54:49.871Z,19.40
2019-04-16T17:57:11.715Z,21.95
2019-04-16T17:59:44.015Z,17.98
2019-04-16T18:02:06.321Z,20.12
2019-04-16T18:04:31.348Z,18.48
2019-04-16T18:07:05.512Z,19.87
2019-04-16T18:09:36.733Z,18.52
2019-04-16T18:12:04.120Z,18.05
2019-04-16T18:14:41.186Z,18.52
2019-04-16T18:17:02.789Z,18.80
2019-04-16T18:19:25.010Z,17.42
2019-04-16T18:21:46.723Z,17.60
2019-04-16T18:24:15.097Z,16.20
2019-04-16T18:26:55.281Z,16.48
2019-04-16T18:29:17.703Z,17.23
2019-04-16T18:31:39.752Z,23.42
2019-04-16T18:34:01.695Z,16.40
2019-04-16T18:36:24.052Z,19.65
2019-04-16T18:38:51.885Z,18.77
2019-04-16T18:41:30.441Z,18.17
2019-04-16T18:43:58.525Z,17.87
2019-04-16T18:46:23.196Z,17.87
2019-04-16T18:48:45.548Z,21.93
2019-04-16T18:51:06.441Z,13.90
2019-04-16T18:53:27.126Z,16.48
2019-04-16T18:55:47.115Z,21.12
2019-04-16T18:58:08.166Z,18.52
2019-04-16T19:00:45.288Z,24.92
2019-04-16T19:03:05.834Z,22.32
2019-04-16T19:05:27.145Z,20.68
2019-04-16T19:07:47.773Z,17.27
2019-04-16T19:10:08.525Z,22.87
2019-04-16T19:12:29.195Z,22.82
2019-04-16T19:14:49.400Z,18.70
2019-04-16T19:17:09.922Z,25.75
2019-04-16T19:19:30.498Z,22.90
2019-04-16T19:21:52.193Z,19.98
2019-04-16T19:24:14.590Z,19.47
2019-04-16T19:26:34.947Z,20.15
2019-04-16T19:28:58.313Z,22.58
2019-04-16T19:33:39.073Z,21.70
2019-04-16T19:35:59.832Z,20.05
2019-04-16T19:38:20.490Z,17.30
2019-04-16T19:40:41.095Z,23.75
2019-04-16T19:43:03.427Z,21.70
2019-04-16T19:45:24.172Z,24.77
2019-04-16T19:47:45.552Z,21.62
2019-04-16T19:50:06.568Z,22.82
2019-04-16T19:52:28.875Z,18.95
2019-04-16T19:54:49.594Z,20.57
2019-04-16T19:57:12.233Z,23.00
2019-04-16T19:59:32.631Z,21.55
2019-04-16T20:01:55.968Z,23.15
2019-04-16T20:04:15.130Z,24.03
2019-04-16T20:06:36.501Z,22.37
2019-04-16T20:08:57.144Z,22.25
2019-04-16T20:11:21.428Z,20.15
2019-04-16T20:13:42.563Z,26.80
2019-04-16T20:16:03.304Z,27.07
2019-04-16T20:18:30.018Z,31.73
2019-04-16T20:20:50.890Z,26.93
2019-04-16T20:23:11.725Z,23.50
2019-04-16T20:25:32.612Z,25.17
2019-04-16T20:27:54.673Z,24.32
2019-04-16T20:30:15.497Z,23.10
2019-04-16T20:32:36.255Z,23.38
2019-04-16T20:34:57.113Z,22.82
2019-04-16T20:37:17.731Z,25.92
2019-04-16T20:39:40.727Z,27.93
2019-04-16T20:42:00.656Z,27.00
2019-04-16T20:44:21.117Z,22.52
2019-04-16T20:46:41.656Z,26.73
2019-04-16T20:49:09.639Z,27.20
2019-04-16T20:51:26.598Z,23.52
2019-04-16T20:53:49.463Z,25.23
2019-04-16T20:56:10.865Z,25.75
2019-04-16T20:58:32.384Z,25.90
2019-04-16T21:00:57.646Z,29.92
2019-04-16T21:03:22.413Z,31.68
2019-04-16T21:05:40.442Z,26.52
2019-04-16T21:08:01.052Z,28.12
2019-04-16T21:10:21.586Z,29.60
2019-04-16T21:12:45.334Z,25.57
2019-04-16T21:15:08.009Z,23.60
2019-04-16T21:17:29.913Z,27.45
2019-04-16T21:19:51.955Z,24.07
2019-04-16T21:22:14.582Z,26.87
2019-04-16T21:24:39.174Z,26.20
2019-04-16T21:26:57.081Z,25.55
2019-04-16T21:29:21.567Z,25.32
2019-04-16T21:31:45.835Z,26.50
2019-04-16T21:34:10.708Z,26.23
2019-04-16T21:36:46.743Z,27.00
2019-04-16T21:39:17.209Z,24.27
2019-04-16T21:41:35.295Z,23.60
2019-04-16T21:44:12.094Z,24.57
2019-04-16T21:46:27.878Z,18.93
2019-04-16T21:48:48.439Z,23.83
2019-04-16T21:51:08.949Z,22.37
2019-04-16T21:53:31.067Z,29.15
2019-04-16T21:55:51.542Z,23.70
2019-04-16T21:58:14.621Z,24.72
2019-04-16T22:00:37.901Z,23.90
2019-04-16T22:03:00.080Z,22.98
2019-04-16T22:05:20.667Z,29.25
2019-04-16T22:07:41.906Z,22.45
2019-04-16T22:10:02.599Z,20.77
2019-04-16T22:12:24.414Z,24.72
2019-04-16T22:14:45.131Z,25.72
2019-04-16T22:17:05.816Z,22.02
2019-04-16T22:19:28.139Z,23.22
2019-04-16T22:21:48.756Z,23.50
2019-04-16T22:24:09.428Z,27.75
2019-04-16T22:26:34.292Z,22.27
2019-04-16T22:28:56.300Z,16.82
2019-04-16T22:31:16.998Z,23.73
2019-04-16T22:33:37.461Z,23.05
2019-04-16T22:35:58.023Z,22.30
2019-04-16T22:38:18.548Z,28.87
2019-04-16T22:40:57.240Z,24.92
2019-04-16T22:43:31.560Z,23.55
2019-04-16T22:48:43.409Z,21.85
2019-04-16T22:51:09.651Z,25.40
2019-04-16T22:53:26.150Z,20.93
2019-04-16T22:55:48.327Z,22.13
2019-04-16T22:58:10.567Z,25.65
2019-04-16T23:00:32.763Z,22.70
2019-04-16T23:02:53.260Z,20.45
2019-04-16T23:05:13.914Z,24.90
2019-04-16T23:07:36.607Z,24.23
2019-04-16T23:09:57.937Z,22.67
2019-04-16T23:12:18.504Z,26.23
2019-04-16T23:14:39.066Z,22.90
2019-04-16T23:17:02.081Z,25.92
2019-04-16T23:19:22.621Z,23.95
2019-04-16T23:21:43.252Z,27.98
2019-04-16T23:24:04.981Z,25.05
2019-04-16T23:26:26.574Z,23.10
2019-04-16T23:28:47.123Z,28.77
2019-04-16T23:31:07.794Z,21.97
2019-04-16T23:33:32.578Z,27.32
2019-04-16T23:35:50.564Z,25.08
2019-04-16T23:38:13.641Z,24.00
2019-04-16T23:40:33.880Z,25.10
2019-04-16T23:43:12.191Z,29.72
2019-04-16T23:45:36.989Z,23.55
2019-04-16T23:48:08.094Z,27.95
2019-04-16T23:50:44.210Z,24.23
2019-04-16T23:52:56.790Z,25.30
2019-04-16T23:55:35.302Z,24.20
2019-04-16T23:58:12.815Z,25.15
